sensor_id;sensor_type;location;lat;lon;timestamp;temperature;humidity
16479;DHT22;8350;52.316;10.530;2022-07-29T00:00:35;14.90;1.00
16479;DHT22;8350;52.316;10.530;2022-07-29T00:03:04;14.70;1.00
16479;DHT22;8350;52.316;10.530;2022-07-29T00:05:31;14.60;1.00
16479;DHT22;8350;52.316;10.530;2022-07-29T00:07:59;14.60;1.00
16479;DHT22;8350;52.316;10.530;2022-07-29T00:10:30;14.60;1.00
16479;DHT22;8350;52.316;10.530;2022-07-29T00:12:58;14.60;1.00
16479;DHT22;8350;52.316;10.530;2022-07-29T00:15:31;14.60;1.00
16479;DHT22;8350;52.316;10.530;2022-07-29T00:18:00;14.60;1.00
16479;DHT22;8350;52.316;10.530;2022-07-29T00:20:30;14.60;1.00
16479;DHT22;8350;52.316;10.530;2022-07-29T00:23:04;14.70;1.00
16479;DHT22;8350;52.316;10.530;2022-07-29T00:25:34;14.80;1.00
16479;DHT22;8350;52.316;10.530;2022-07-29T00:28:09;14.80;1.00
16479;DHT22;8350;52.316;10.530;2022-07-29T00:30:36;14.90;1.00
16479;DHT22;8350;52.316;10.530;2022-07-29T00:33:04;15.00;1.00
16479;DHT22;8350;52.316;10.530;2022-07-29T00:35:33;15.00;1.00
16479;DHT22;8350;52.316;10.530;2022-07-29T00:38:16;15.00;1.00
16479;DHT22;8350;52.316;10.530;2022-07-29T00:40:47;15.00;1.00
16479;DHT22;8350;52.316;10.530;2022-07-29T00:43:14;15.00;1.00
16479;DHT22;8350;52.316;10.530;2022-07-29T00:45:44;15.00;1.00
16479;DHT22;8350;52.316;10.530;2022-07-29T00:48:14;15.00;1.00
16479;DHT22;8350;52.316;10.530;2022-07-29T00:50:43;15.00;1.00
16479;DHT22;8350;52.316;10.530;2022-07-29T00:53:12;15.10;1.00
16479;DHT22;8350;52.316;10.530;2022-07-29T00:55:43;15.10;1.00
16479;DHT22;8350;52.316;10.530;2022-07-29T00:58:12;15.10;1.00
16479;DHT22;8350;52.316;10.530;2022-07-29T01:00:54;15.10;1.00
16479;DHT22;8350;52.316;10.530;2022-07-29T01:03:22;15.10;1.00
16479;DHT22;8350;52.316;10.530;2022-07-29T01:05:50;15.10;1.00
16479;DHT22;8350;52.316;10.530;2022-07-29T01:08:17;15.10;1.00
16479;DHT22;8350;52.316;10.530;2022-07-29T01:10:45;15.10;1.00
16479;DHT22;8350;52.316;10.530;2022-07-29T01:13:15;15.10;1.00
16479;DHT22;8350;52.316;10.530;2022-07-29T01:15:59;15.00;1.00
16479;DHT22;8350;52.316;10.530;2022-07-29T01:18:31;14.90;1.00
16479;DHT22;8350;52.316;10.530;2022-07-29T01:21:21;14.80;1.00
16479;DHT22;8350;52.316;10.530;2022-07-29T01:27:01;14.80;1.00
16479;DHT22;8350;52.316;10.530;2022-07-29T01:29:36;14.70;1.00
16479;DHT22;8350;52.316;10.530;2022-07-29T01:32:10;14.70;1.00
16479;DHT22;8350;52.316;10.530;2022-07-29T01:34:47;14.60;1.00
16479;DHT22;8350;52.316;10.530;2022-07-29T01:37:18;14.80;1.00
16479;DHT22;8350;52.316;10.530;2022-07-29T01:39:48;14.80;1.00
16479;DHT22;8350;52.316;10.530;2022-07-29T01:42:20;14.80;1.00
16479;DHT22;8350;52.316;10.530;2022-07-29T01:45:03;14.90;1.00
16479;DHT22;8350;52.316;10.530;2022-07-29T01:47:37;14.90;1.00
16479;DHT22;8350;52.316;10.530;2022-07-29T01:50:11;14.80;1.00
16479;DHT22;8350;52.316;10.530;2022-07-29T01:52:43;14.70;1.00
16479;DHT22;8350;52.316;10.530;2022-07-29T01:55:22;14.70;1.00
16479;DHT22;8350;52.316;10.530;2022-07-29T01:57:52;14.70;1.00
16479;DHT22;8350;52.316;10.530;2022-07-29T02:00:22;14.60;1.00
16479;DHT22;8350;52.316;10.530;2022-07-29T02:06:06;14.60;1.00
16479;DHT22;8350;52.316;10.530;2022-07-29T02:08:34;14.60;1.00
16479;DHT22;8350;52.316;10.530;2022-07-29T02:11:04;14.50;1.00
16479;DHT22;8350;52.316;10.530;2022-07-29T02:13:37;14.40;1.00
16479;DHT22;8350;52.316;10.530;2022-07-29T02:16:22;14.50;1.00
16479;DHT22;8350;52.316;10.530;2022-07-29T02:19:22;14.60;1.00
16479;DHT22;8350;52.316;10.530;2022-07-29T02:21:51;14.60;1.00
16479;DHT22;8350;52.316;10.530;2022-07-29T02:24:25;14.50;1.00
16479;DHT22;8350;52.316;10.530;2022-07-29T02:26:55;14.60;1.00
16479;DHT22;8350;52.316;10.530;2022-07-29T02:29:32;14.60;1.00
16479;DHT22;8350;52.316;10.530;2022-07-29T02:32:05;14.70;1.00
16479;DHT22;8350;52.316;10.530;2022-07-29T02:34:59;14.70;1.00
16479;DHT22;8350;52.316;10.530;2022-07-29T02:37:29;14.80;1.00
16479;DHT22;8350;52.316;10.530;2022-07-29T02:39:58;14.60;1.00
16479;DHT22;8350;52.316;10.530;2022-07-29T02:42:28;14.60;1.00
16479;DHT22;8350;52.316;10.530;2022-07-29T02:44:55;14.60;1.00
16479;DHT22;8350;52.316;10.530;2022-07-29T02:47:30;14.50;1.00
16479;DHT22;8350;52.316;10.530;2022-07-29T02:50:07;14.60;1.00
16479;DHT22;8350;52.316;10.530;2022-07-29T02:52:44;14.60;1.00
16479;DHT22;8350;52.316;10.530;2022-07-29T02:55:31;14.60;1.00
16479;DHT22;8350;52.316;10.530;2022-07-29T02:58:01;14.50;1.00
16479;DHT22;8350;52.316;10.530;2022-07-29T03:00:32;14.50;1.00
16479;DHT22;8350;52.316;10.530;2022-07-29T03:03:12;14.50;1.00
16479;DHT22;8350;52.316;10.530;2022-07-29T03:05:40;14.50;1.00
16479;DHT22;8350;52.316;10.530;2022-07-29T03:08:11;14.50;1.00
16479;DHT22;8350;52.316;10.530;2022-07-29T03:10:40;14.50;1.00
16479;DHT22;8350;52.316;10.530;2022-07-29T03:13:11;14.40;1.00
16479;DHT22;8350;52.316;10.530;2022-07-29T03:15:47;14.60;1.00
16479;DHT22;8350;52.316;10.530;2022-07-29T03:18:15;14.70;1.00
16479;DHT22;8350;52.316;10.530;2022-07-29T03:20:43;14.70;1.00
16479;DHT22;8350;52.316;10.530;2022-07-29T03:23:46;14.60;1.00
16479;DHT22;8350;52.316;10.530;2022-07-29T03:26:13;14.70;1.00
16479;DHT22;8350;52.316;10.530;2022-07-29T03:28:54;14.60;1.00
16479;DHT22;8350;52.316;10.530;2022-07-29T03:31:21;14.80;1.00
16479;DHT22;8350;52.316;10.530;2022-07-29T03:34:09;14.70;1.00
16479;DHT22;8350;52.316;10.530;2022-07-29T03:36:46;14.70;1.00
16479;DHT22;8350;52.316;10.530;2022-07-29T03:39:17;14.70;1.00
16479;DHT22;8350;52.316;10.530;2022-07-29T03:41:46;14.80;1.00
16479;DHT22;8350;52.316;10.530;2022-07-29T03:44:15;14.80;1.00
16479;DHT22;8350;52.316;10.530;2022-07-29T03:46:43;14.90;1.00
16479;DHT22;8350;52.316;10.530;2022-07-29T03:49:15;14.90;1.00
16479;DHT22;8350;52.316;10.530;2022-07-29T03:51:53;14.80;1.00
16479;DHT22;8350;52.316;10.530;2022-07-29T03:54:21;14.80;1.00
16479;DHT22;8350;52.316;10.530;2022-07-29T03:56:52;14.70;1.00
16479;DHT22;8350;52.316;10.530;2022-07-29T03:59:26;14.70;1.00
16479;DHT22;8350;52.316;10.530;2022-07-29T04:02:05;14.70;1.00
16479;DHT22;8350;52.316;10.530;2022-07-29T04:04:40;14.60;1.00
16479;DHT22;8350;52.316;10.530;2022-07-29T04:07:12;14.60;1.00
16479;DHT22;8350;52.316;10.530;2022-07-29T04:09:52;14.60;1.00
16479;DHT22;8350;52.316;10.530;2022-07-29T04:12:25;14.60;1.00
16479;DHT22;8350;52.316;10.530;2022-07-29T04:14:57;14.60;1.00
16479;DHT22;8350;52.316;10.530;2022-07-29T04:17:24;14.60;1.00
16479;DHT22;8350;52.316;10.530;2022-07-29T04:20:10;14.60;1.00
16479;DHT22;8350;52.316;10.530;2022-07-29T04:22:40;14.60;1.00
16479;DHT22;8350;52.316;10.530;2022-07-29T04:25:23;14.50;1.00
16479;DHT22;8350;52.316;10.530;2022-07-29T04:27:52;14.50;1.00
16479;DHT22;8350;52.316;10.530;2022-07-29T04:30:46;14.50;1.00
16479;DHT22;8350;52.316;10.530;2022-07-29T04:33:13;14.70;1.00
16479;DHT22;8350;52.316;10.530;2022-07-29T04:35:44;14.80;1.00
16479;DHT22;8350;52.316;10.530;2022-07-29T04:38:32;14.80;1.00
16479;DHT22;8350;52.316;10.530;2022-07-29T04:41:17;14.70;1.00
16479;DHT22;8350;52.316;10.530;2022-07-29T04:43:51;14.80;1.00
16479;DHT22;8350;52.316;10.530;2022-07-29T04:46:26;14.80;1.00
16479;DHT22;8350;52.316;10.530;2022-07-29T04:48:53;14.80;1.00
16479;DHT22;8350;52.316;10.530;2022-07-29T04:51:28;15.00;1.00
16479;DHT22;8350;52.316;10.530;2022-07-29T04:53:55;15.10;1.00
16479;DHT22;8350;52.316;10.530;2022-07-29T04:56:22;15.20;1.00
16479;DHT22;8350;52.316;10.530;2022-07-29T04:58:57;15.30;1.00
16479;DHT22;8350;52.316;10.530;2022-07-29T05:01:24;15.30;1.00
16479;DHT22;8350;52.316;10.530;2022-07-29T05:03:51;15.40;1.00
16479;DHT22;8350;52.316;10.530;2022-07-29T05:06:21;15.40;1.00
16479;DHT22;8350;52.316;10.530;2022-07-29T05:08:49;15.50;1.00
16479;DHT22;8350;52.316;10.530;2022-07-29T05:11:18;15.60;1.00
16479;DHT22;8350;52.316;10.530;2022-07-29T05:13:46;15.60;1.00
16479;DHT22;8350;52.316;10.530;2022-07-29T05:16:13;15.50;1.00
16479;DHT22;8350;52.316;10.530;2022-07-29T05:18:40;15.60;1.00
16479;DHT22;8350;52.316;10.530;2022-07-29T05:21:07;15.60;1.00
16479;DHT22;8350;52.316;10.530;2022-07-29T05:23:44;15.70;1.00
16479;DHT22;8350;52.316;10.530;2022-07-29T05:26:18;15.70;1.00
16479;DHT22;8350;52.316;10.530;2022-07-29T05:28:46;15.70;1.00
16479;DHT22;8350;52.316;10.530;2022-07-29T05:31:25;15.80;1.00
16479;DHT22;8350;52.316;10.530;2022-07-29T05:34:18;15.70;1.00
16479;DHT22;8350;52.316;10.530;2022-07-29T05:36:47;15.70;1.00
16479;DHT22;8350;52.316;10.530;2022-07-29T05:39:48;15.70;1.00
16479;DHT22;8350;52.316;10.530;2022-07-29T05:42:30;15.90;1.00
16479;DHT22;8350;52.316;10.530;2022-07-29T05:45:35;16.00;1.00
16479;DHT22;8350;52.316;10.530;2022-07-29T05:48:31;16.30;1.00
16479;DHT22;8350;52.316;10.530;2022-07-29T05:50:58;16.30;1.00
16479;DHT22;8350;52.316;10.530;2022-07-29T05:53:43;16.40;1.00
16479;DHT22;8350;52.316;10.530;2022-07-29T05:56:14;16.30;1.00
16479;DHT22;8350;52.316;10.530;2022-07-29T05:59:19;16.40;1.00
16479;DHT22;8350;52.316;10.530;2022-07-29T06:02:23;16.50;1.00
16479;DHT22;8350;52.316;10.530;2022-07-29T06:05:09;16.60;1.00
16479;DHT22;8350;52.316;10.530;2022-07-29T06:08:02;17.00;1.00
16479;DHT22;8350;52.316;10.530;2022-07-29T06:10:39;17.40;1.00
16479;DHT22;8350;52.316;10.530;2022-07-29T06:13:16;17.70;1.00
16479;DHT22;8350;52.316;10.530;2022-07-29T06:15:45;17.90;1.00
16479;DHT22;8350;52.316;10.530;2022-07-29T06:18:37;17.80;1.00
16479;DHT22;8350;52.316;10.530;2022-07-29T06:21:17;17.70;1.00
16479;DHT22;8350;52.316;10.530;2022-07-29T06:23:45;17.70;1.00
16479;DHT22;8350;52.316;10.530;2022-07-29T06:26:13;17.70;1.00
16479;DHT22;8350;52.316;10.530;2022-07-29T06:28:48;17.70;1.00
16479;DHT22;8350;52.316;10.530;2022-07-29T06:31:36;17.80;1.00
16479;DHT22;8350;52.316;10.530;2022-07-29T06:34:10;18.20;1.00
16479;DHT22;8350;52.316;10.530;2022-07-29T06:36:42;18.50;1.00
16479;DHT22;8350;52.316;10.530;2022-07-29T06:39:16;18.90;1.00
16479;DHT22;8350;52.316;10.530;2022-07-29T06:41:50;19.20;1.00
16479;DHT22;8350;52.316;10.530;2022-07-29T06:44:28;19.30;1.00
16479;DHT22;8350;52.316;10.530;2022-07-29T06:47:18;19.20;99.90
16479;DHT22;8350;52.316;10.530;2022-07-29T06:50:11;19.00;99.90
16479;DHT22;8350;52.316;10.530;2022-07-29T06:52:44;18.80;1.00
16479;DHT22;8350;52.316;10.530;2022-07-29T06:55:18;18.70;1.00
16479;DHT22;8350;52.316;10.530;2022-07-29T06:57:51;18.60;1.00
16479;DHT22;8350;52.316;10.530;2022-07-29T07:00:18;18.50;1.00
16479;DHT22;8350;52.316;10.530;2022-07-29T07:02:55;18.50;1.00
16479;DHT22;8350;52.316;10.530;2022-07-29T07:05:22;18.60;1.00
16479;DHT22;8350;52.316;10.530;2022-07-29T07:07:54;18.80;1.00
16479;DHT22;8350;52.316;10.530;2022-07-29T07:10:21;18.90;1.00
16479;DHT22;8350;52.316;10.530;2022-07-29T07:12:48;18.90;1.00
16479;DHT22;8350;52.316;10.530;2022-07-29T07:15:16;19.00;1.00
16479;DHT22;8350;52.316;10.530;2022-07-29T07:18:01;19.20;99.90
16479;DHT22;8350;52.316;10.530;2022-07-29T07:20:36;19.70;99.90
16479;DHT22;8350;52.316;10.530;2022-07-29T07:23:04;20.10;99.90
16479;DHT22;8350;52.316;10.530;2022-07-29T07:25:46;20.20;99.90
16479;DHT22;8350;52.316;10.530;2022-07-29T07:28:15;20.30;98.60
16479;DHT22;8350;52.316;10.530;2022-07-29T07:30:42;20.20;99.90
16479;DHT22;8350;52.316;10.530;2022-07-29T07:33:15;20.30;81.60
16479;DHT22;8350;52.316;10.530;2022-07-29T07:35:44;20.40;22.30
16479;DHT22;8350;52.316;10.530;2022-07-29T07:38:13;20.30;1.00
16479;DHT22;8350;52.316;10.530;2022-07-29T07:40:43;20.30;8.70
16479;DHT22;8350;52.316;10.530;2022-07-29T07:43:20;20.30;13.80
16479;DHT22;8350;52.316;10.530;2022-07-29T07:45:48;20.30;1.00
16479;DHT22;8350;52.316;10.530;2022-07-29T07:48:16;20.20;1.00
16479;DHT22;8350;52.316;10.530;2022-07-29T07:50:42;20.20;1.00
16479;DHT22;8350;52.316;10.530;2022-07-29T07:53:09;20.20;28.30
16479;DHT22;8350;52.316;10.530;2022-07-29T07:55:43;20.40;9.30
16479;DHT22;8350;52.316;10.530;2022-07-29T07:58:12;20.50;1.00
16479;DHT22;8350;52.316;10.530;2022-07-29T08:00:39;20.60;1.00
16479;DHT22;8350;52.316;10.530;2022-07-29T08:03:08;20.50;1.00
16479;DHT22;8350;52.316;10.530;2022-07-29T08:05:41;20.50;1.00
16479;DHT22;8350;52.316;10.530;2022-07-29T08:08:08;20.50;1.00
16479;DHT22;8350;52.316;10.530;2022-07-29T08:10:37;20.60;1.00
16479;DHT22;8350;52.316;10.530;2022-07-29T08:13:23;20.50;1.00
16479;DHT22;8350;52.316;10.530;2022-07-29T08:15:51;20.60;1.00
16479;DHT22;8350;52.316;10.530;2022-07-29T08:18:24;20.30;1.00
16479;DHT22;8350;52.316;10.530;2022-07-29T08:20:53;20.10;1.00
16479;DHT22;8350;52.316;10.530;2022-07-29T08:23:21;20.20;1.00
16479;DHT22;8350;52.316;10.530;2022-07-29T08:25:55;20.40;1.00
16479;DHT22;8350;52.316;10.530;2022-07-29T08:28:21;20.50;1.00
16479;DHT22;8350;52.316;10.530;2022-07-29T08:30:49;20.80;1.00
16479;DHT22;8350;52.316;10.530;2022-07-29T08:33:15;21.00;1.00
16479;DHT22;8350;52.316;10.530;2022-07-29T08:35:43;21.20;1.00
16479;DHT22;8350;52.316;10.530;2022-07-29T08:38:12;21.20;1.00
16479;DHT22;8350;52.316;10.530;2022-07-29T08:40:39;21.40;1.00
16479;DHT22;8350;52.316;10.530;2022-07-29T08:43:07;21.50;1.00
16479;DHT22;8350;52.316;10.530;2022-07-29T08:45:42;21.80;1.00
16479;DHT22;8350;52.316;10.530;2022-07-29T08:48:11;22.00;1.00
16479;DHT22;8350;52.316;10.530;2022-07-29T08:50:39;22.30;1.00
16479;DHT22;8350;52.316;10.530;2022-07-29T08:53:14;22.60;99.90
16479;DHT22;8350;52.316;10.530;2022-07-29T08:55:43;23.00;67.50
16479;DHT22;8350;52.316;10.530;2022-07-29T08:58:10;23.20;1.00
16479;DHT22;8350;52.316;10.530;2022-07-29T09:00:42;23.30;99.90
16479;DHT22;8350;52.316;10.530;2022-07-29T09:03:12;23.40;99.90
16479;DHT22;8350;52.316;10.530;2022-07-29T09:05:43;23.60;99.90
16479;DHT22;8350;52.316;10.530;2022-07-29T09:08:12;23.70;85.80
16479;DHT22;8350;52.316;10.530;2022-07-29T09:10:41;23.80;1.00
16479;DHT22;8350;52.316;10.530;2022-07-29T09:13:18;23.80;1.00
16479;DHT22;8350;52.316;10.530;2022-07-29T09:15:46;23.70;1.00
16479;DHT22;8350;52.316;10.530;2022-07-29T09:18:33;23.50;1.00
16479;DHT22;8350;52.316;10.530;2022-07-29T09:21:05;23.40;1.00
16479;DHT22;8350;52.316;10.530;2022-07-29T09:24:06;23.50;1.00
16479;DHT22;8350;52.316;10.530;2022-07-29T09:26:35;23.70;1.00
16479;DHT22;8350;52.316;10.530;2022-07-29T09:29:14;23.80;1.00
16479;DHT22;8350;52.316;10.530;2022-07-29T09:31:43;23.80;99.90
16479;DHT22;8350;52.316;10.530;2022-07-29T09:34:14;23.70;99.90
16479;DHT22;8350;52.316;10.530;2022-07-29T09:36:46;23.60;99.90
16479;DHT22;8350;52.316;10.530;2022-07-29T09:39:32;23.80;99.90
16479;DHT22;8350;52.316;10.530;2022-07-29T09:42:16;23.80;99.90
16479;DHT22;8350;52.316;10.530;2022-07-29T09:47:43;24.50;99.90
16479;DHT22;8350;52.316;10.530;2022-07-29T09:50:15;24.60;1.00
16479;DHT22;8350;52.316;10.530;2022-07-29T09:52:46;25.00;1.00
16479;DHT22;8350;52.316;10.530;2022-07-29T09:55:15;25.20;99.90
16479;DHT22;8350;52.316;10.530;2022-07-29T09:57:43;25.20;99.90
16479;DHT22;8350;52.316;10.530;2022-07-29T10:00:12;25.30;99.90
16479;DHT22;8350;52.316;10.530;2022-07-29T10:02:43;25.40;68.00
16479;DHT22;8350;52.316;10.530;2022-07-29T10:05:20;25.40;99.90
16479;DHT22;8350;52.316;10.530;2022-07-29T10:07:48;25.50;1.00
16479;DHT22;8350;52.316;10.530;2022-07-29T10:10:21;25.60;1.00
16479;DHT22;8350;52.316;10.530;2022-07-29T10:12:50;25.50;99.90
16479;DHT22;8350;52.316;10.530;2022-07-29T10:15:18;25.60;1.00
16479;DHT22;8350;52.316;10.530;2022-07-29T10:17:45;25.60;1.00
16479;DHT22;8350;52.316;10.530;2022-07-29T10:20:13;25.40;21.20
16479;DHT22;8350;52.316;10.530;2022-07-29T10:22:41;25.30;99.50
16479;DHT22;8350;52.316;10.530;2022-07-29T10:25:09;25.60;99.90
16479;DHT22;8350;52.316;10.530;2022-07-29T10:27:38;25.90;1.00
16479;DHT22;8350;52.316;10.530;2022-07-29T10:30:06;25.90;99.90
16479;DHT22;8350;52.316;10.530;2022-07-29T10:32:48;25.80;99.90
16479;DHT22;8350;52.316;10.530;2022-07-29T10:35:47;25.50;99.90
16479;DHT22;8350;52.316;10.530;2022-07-29T10:38:31;25.30;99.90
16479;DHT22;8350;52.316;10.530;2022-07-29T10:41:07;25.20;99.90
16479;DHT22;8350;52.316;10.530;2022-07-29T10:43:59;25.20;99.90
16479;DHT22;8350;52.316;10.530;2022-07-29T10:46:28;25.10;99.90
16479;DHT22;8350;52.316;10.530;2022-07-29T10:49:05;25.10;99.90
16479;DHT22;8350;52.316;10.530;2022-07-29T10:51:56;25.10;99.90
16479;DHT22;8350;52.316;10.530;2022-07-29T10:54:45;25.20;99.90
16479;DHT22;8350;52.316;10.530;2022-07-29T10:57:21;25.20;99.90
16479;DHT22;8350;52.316;10.530;2022-07-29T11:00:21;24.90;99.90
16479;DHT22;8350;52.316;10.530;2022-07-29T11:02:44;24.70;99.90
16479;DHT22;8350;52.316;10.530;2022-07-29T11:05:14;24.60;99.90
16479;DHT22;8350;52.316;10.530;2022-07-29T11:10:43;24.50;1.00
16479;DHT22;8350;52.316;10.530;2022-07-29T11:13:10;24.40;1.00
16479;DHT22;8350;52.316;10.530;2022-07-29T11:15:54;24.40;1.00
16479;DHT22;8350;52.316;10.530;2022-07-29T11:18:21;24.50;1.00
16479;DHT22;8350;52.316;10.530;2022-07-29T11:20:49;24.70;1.00
16479;DHT22;8350;52.316;10.530;2022-07-29T11:23:24;24.80;1.00
16479;DHT22;8350;52.316;10.530;2022-07-29T11:26:13;24.90;1.00
16479;DHT22;8350;52.316;10.530;2022-07-29T11:28:51;24.90;1.00
16479;DHT22;8350;52.316;10.530;2022-07-29T11:31:33;24.90;1.00
16479;DHT22;8350;52.316;10.530;2022-07-29T11:34:17;25.00;1.00
16479;DHT22;8350;52.316;10.530;2022-07-29T11:37:19;25.30;1.00
16479;DHT22;8350;52.316;10.530;2022-07-29T11:42:47;25.30;99.90
16479;DHT22;8350;52.316;10.530;2022-07-29T11:45:31;25.50;99.90
16479;DHT22;8350;52.316;10.530;2022-07-29T11:48:17;25.50;99.90
16479;DHT22;8350;52.316;10.530;2022-07-29T11:50:44;25.60;99.90
16479;DHT22;8350;52.316;10.530;2022-07-29T11:53:12;25.60;99.90
16479;DHT22;8350;52.316;10.530;2022-07-29T11:55:42;25.60;99.90
16479;DHT22;8350;52.316;10.530;2022-07-29T11:58:12;25.80;1.00
16479;DHT22;8350;52.316;10.530;2022-07-29T12:00:40;25.90;1.00
16479;DHT22;8350;52.316;10.530;2022-07-29T12:03:10;26.10;1.00
16479;DHT22;8350;52.316;10.530;2022-07-29T12:05:43;26.00;1.00
16479;DHT22;8350;52.316;10.530;2022-07-29T12:08:13;26.10;99.90
16479;DHT22;8350;52.316;10.530;2022-07-29T12:10:45;26.10;99.90
16479;DHT22;8350;52.316;10.530;2022-07-29T12:13:19;26.20;99.90
16479;DHT22;8350;52.316;10.530;2022-07-29T12:15:52;26.20;99.90
16479;DHT22;8350;52.316;10.530;2022-07-29T12:18:20;26.30;77.60
16479;DHT22;8350;52.316;10.530;2022-07-29T12:20:56;26.40;3.00
16479;DHT22;8350;52.316;10.530;2022-07-29T12:23:25;26.50;1.00
16479;DHT22;8350;52.316;10.530;2022-07-29T12:25:52;26.50;1.00
16479;DHT22;8350;52.316;10.530;2022-07-29T12:28:19;26.60;1.00
16479;DHT22;8350;52.316;10.530;2022-07-29T12:30:48;26.80;1.00
16479;DHT22;8350;52.316;10.530;2022-07-29T12:33:21;26.90;1.00
16479;DHT22;8350;52.316;10.530;2022-07-29T12:35:51;27.00;1.00
16479;DHT22;8350;52.316;10.530;2022-07-29T12:38:19;27.20;1.00
16479;DHT22;8350;52.316;10.530;2022-07-29T12:40:47;27.30;99.90
16479;DHT22;8350;52.316;10.530;2022-07-29T12:43:16;27.50;99.90
16479;DHT22;8350;52.316;10.530;2022-07-29T12:45:45;27.50;99.90
16479;DHT22;8350;52.316;10.530;2022-07-29T12:48:12;27.50;61.10
16479;DHT22;8350;52.316;10.530;2022-07-29T12:50:55;27.40;1.00
16479;DHT22;8350;52.316;10.530;2022-07-29T12:53:32;27.20;1.00
16479;DHT22;8350;52.316;10.530;2022-07-29T12:56:03;27.20;1.00
16479;DHT22;8350;52.316;10.530;2022-07-29T12:58:33;27.20;1.00
16479;DHT22;8350;52.316;10.530;2022-07-29T13:01:22;27.00;1.00
16479;DHT22;8350;52.316;10.530;2022-07-29T13:03:57;27.00;1.00
16479;DHT22;8350;52.316;10.530;2022-07-29T13:06:44;27.10;1.00
16479;DHT22;8350;52.316;10.530;2022-07-29T13:09:17;27.20;1.00
16479;DHT22;8350;52.316;10.530;2022-07-29T13:11:46;27.30;1.00
16479;DHT22;8350;52.316;10.530;2022-07-29T13:14:38;27.50;1.00
16479;DHT22;8350;52.316;10.530;2022-07-29T13:17:46;27.50;1.00
16479;DHT22;8350;52.316;10.530;2022-07-29T13:20:15;27.40;1.00
16479;DHT22;8350;52.316;10.530;2022-07-29T13:23:04;27.50;1.00
16479;DHT22;8350;52.316;10.530;2022-07-29T13:25:31;27.40;1.00
16479;DHT22;8350;52.316;10.530;2022-07-29T13:28:09;27.40;1.00
16479;DHT22;8350;52.316;10.530;2022-07-29T13:30:37;27.40;1.00
16479;DHT22;8350;52.316;10.530;2022-07-29T13:33:05;27.30;1.00
16479;DHT22;8350;52.316;10.530;2022-07-29T13:35:32;27.20;1.00
16479;DHT22;8350;52.316;10.530;2022-07-29T13:38:00;27.20;99.90
16479;DHT22;8350;52.316;10.530;2022-07-29T13:47:34;27.10;99.90
16479;DHT22;8350;52.316;10.530;2022-07-29T13:50:12;27.10;99.90
16479;DHT22;8350;52.316;10.530;2022-07-29T13:52:52;27.10;99.90
16479;DHT22;8350;52.316;10.530;2022-07-29T13:55:27;27.20;99.90
16479;DHT22;8350;52.316;10.530;2022-07-29T14:01:41;27.10;99.90
16479;DHT22;8350;52.316;10.530;2022-07-29T14:11:00;26.90;99.90
16479;DHT22;8350;52.316;10.530;2022-07-29T14:16:56;26.90;99.90
16479;DHT22;8350;52.316;10.530;2022-07-29T14:20:00;26.90;99.90
16479;DHT22;8350;52.316;10.530;2022-07-29T14:23:05;26.90;99.90
16479;DHT22;8350;52.316;10.530;2022-07-29T14:26:02;26.90;99.90
16479;DHT22;8350;52.316;10.530;2022-07-29T14:32:45;26.90;99.90
16479;DHT22;8350;52.316;10.530;2022-07-29T14:35:13;26.80;99.90
16479;DHT22;8350;52.316;10.530;2022-07-29T14:38:00;26.70;99.90
16479;DHT22;8350;52.316;10.530;2022-07-29T14:40:41;26.60;99.90
16479;DHT22;8350;52.316;10.530;2022-07-29T14:43:18;26.60;99.90
16479;DHT22;8350;52.316;10.530;2022-07-29T15:00:22;26.60;99.90
16479;DHT22;8350;52.316;10.530;2022-07-29T15:06:16;26.70;99.90
16479;DHT22;8350;52.316;10.530;2022-07-29T15:08:45;26.50;99.90
16479;DHT22;8350;52.316;10.530;2022-07-29T15:11:34;26.40;99.90
16479;DHT22;8350;52.316;10.530;2022-07-29T15:17:27;26.20;1.00
16479;DHT22;8350;52.316;10.530;2022-07-29T15:19:55;26.20;99.90
16479;DHT22;8350;52.316;10.530;2022-07-29T15:22:24;26.10;99.90
16479;DHT22;8350;52.316;10.530;2022-07-29T15:25:00;26.00;99.90
16479;DHT22;8350;52.316;10.530;2022-07-29T15:27:29;26.00;1.00
16479;DHT22;8350;52.316;10.530;2022-07-29T15:29:57;26.10;1.00
16479;DHT22;8350;52.316;10.530;2022-07-29T15:32:24;26.10;1.00
16479;DHT22;8350;52.316;10.530;2022-07-29T15:35:03;26.00;1.00
16479;DHT22;8350;52.316;10.530;2022-07-29T15:37:38;26.00;1.00
16479;DHT22;8350;52.316;10.530;2022-07-29T15:40:08;26.10;1.00
16479;DHT22;8350;52.316;10.530;2022-07-29T15:42:44;26.10;1.00
16479;DHT22;8350;52.316;10.530;2022-07-29T15:45:11;26.00;1.00
16479;DHT22;8350;52.316;10.530;2022-07-29T15:47:39;25.80;1.00
16479;DHT22;8350;52.316;10.530;2022-07-29T15:50:10;25.80;1.00
16479;DHT22;8350;52.316;10.530;2022-07-29T15:52:46;25.60;1.00
16479;DHT22;8350;52.316;10.530;2022-07-29T15:55:15;25.60;1.00
16479;DHT22;8350;52.316;10.530;2022-07-29T15:57:44;25.60;1.00
16479;DHT22;8350;52.316;10.530;2022-07-29T16:00:15;25.70;1.00
16479;DHT22;8350;52.316;10.530;2022-07-29T16:02:47;25.70;1.00
16479;DHT22;8350;52.316;10.530;2022-07-29T16:05:15;25.60;1.00
16479;DHT22;8350;52.316;10.530;2022-07-29T16:07:45;25.40;1.00
16479;DHT22;8350;52.316;10.530;2022-07-29T16:10:15;25.40;1.00
16479;DHT22;8350;52.316;10.530;2022-07-29T16:12:50;25.30;1.00
16479;DHT22;8350;52.316;10.530;2022-07-29T16:15:28;25.30;1.00
16479;DHT22;8350;52.316;10.530;2022-07-29T16:18:00;25.40;1.00
16479;DHT22;8350;52.316;10.530;2022-07-29T16:20:29;25.50;1.00
16479;DHT22;8350;52.316;10.530;2022-07-29T16:22:56;25.50;1.00
16479;DHT22;8350;52.316;10.530;2022-07-29T16:25:23;25.50;1.00
16479;DHT22;8350;52.316;10.530;2022-07-29T16:28:00;25.50;1.00
16479;DHT22;8350;52.316;10.530;2022-07-29T16:30:27;25.60;1.00
16479;DHT22;8350;52.316;10.530;2022-07-29T16:32:55;25.60;1.00
16479;DHT22;8350;52.316;10.530;2022-07-29T16:35:23;25.60;1.00
16479;DHT22;8350;52.316;10.530;2022-07-29T16:37:52;25.60;1.00
16479;DHT22;8350;52.316;10.530;2022-07-29T16:40:21;25.60;1.00
16479;DHT22;8350;52.316;10.530;2022-07-29T16:43:11;25.60;1.00
16479;DHT22;8350;52.316;10.530;2022-07-29T16:45:49;25.60;1.00
16479;DHT22;8350;52.316;10.530;2022-07-29T16:48:35;25.60;1.00
16479;DHT22;8350;52.316;10.530;2022-07-29T16:51:08;25.70;1.00
16479;DHT22;8350;52.316;10.530;2022-07-29T16:53:45;25.70;1.00
16479;DHT22;8350;52.316;10.530;2022-07-29T16:56:12;25.80;1.00
16479;DHT22;8350;52.316;10.530;2022-07-29T16:58:39;25.90;1.00
16479;DHT22;8350;52.316;10.530;2022-07-29T17:01:06;25.90;1.00
16479;DHT22;8350;52.316;10.530;2022-07-29T17:03:33;25.80;1.00
16479;DHT22;8350;52.316;10.530;2022-07-29T17:06:00;25.80;1.00
16479;DHT22;8350;52.316;10.530;2022-07-29T17:08:28;25.70;1.00
16479;DHT22;8350;52.316;10.530;2022-07-29T17:10:56;25.60;1.00
16479;DHT22;8350;52.316;10.530;2022-07-29T17:13:33;25.60;1.00
16479;DHT22;8350;52.316;10.530;2022-07-29T17:16:00;25.60;1.00
16479;DHT22;8350;52.316;10.530;2022-07-29T17:18:27;25.60;1.00
16479;DHT22;8350;52.316;10.530;2022-07-29T17:20:54;25.40;1.00
16479;DHT22;8350;52.316;10.530;2022-07-29T17:23:22;25.40;1.00
16479;DHT22;8350;52.316;10.530;2022-07-29T17:25:56;25.40;1.00